Time;durP1;ratioP1;P1;durP2;ratioP2;P2;SDS_P1;SDS_P2;PMS_P1;PMS_P2;Temp;Humidity;BMP_temperature;BMP_pressure;BME280_temperature;BME280_humidity;BME280_pressure;Samples;Min_cycle;Max_cycle;Signal;HPM_P1;HPM_P2
2020/12/19 00:01:43;;;;;;;0.30;0.30;;;4.70;99.90;;;;;;5032954;28;20272;-69
2020/12/19 00:04:09;;;;;;;0.30;0.30;;;4.70;99.90;;;;;;5033078;28;20173;-69
2020/12/19 00:06:34;;;;;;;0.30;0.30;;;4.70;99.90;;;;;;5034048;28;20181;-71
2020/12/19 00:09:00;;;;;;;1.53;1.07;;;4.60;99.90;;;;;;5033117;28;20309;-72
2020/12/19 00:11:26;;;;;;;0.40;0.40;;;4.60;99.90;;;;;;5033106;28;20198;-68
2020/12/19 00:13:51;;;;;;;0.40;0.40;;;4.60;99.90;;;;;;5032802;28;20220;-72
2020/12/19 00:16:18;;;;;;;0.30;0.30;;;4.60;99.90;;;;;;5032886;28;20177;-71
2020/12/19 00:18:45;;;;;;;0.50;0.50;;;4.50;99.90;;;;;;5031646;28;20584;-69
2020/12/19 00:21:11;;;;;;;0.70;0.70;;;4.50;99.90;;;;;;5032786;28;20201;-69
2020/12/19 00:23:38;;;;;;;0.30;0.30;;;4.60;99.90;;;;;;5032734;28;20185;-71
2020/12/19 00:26:04;;;;;;;0.40;0.40;;;4.70;99.90;;;;;;5033399;28;20178;-71
2020/12/19 00:28:29;;;;;;;0.38;0.38;;;4.70;99.90;;;;;;5033347;28;20162;-68
2020/12/19 00:30:55;;;;;;;0.30;0.30;;;4.70;99.90;;;;;;5041521;28;20203;-72
2020/12/19 00:33:24;;;;;;;0.30;0.30;;;4.80;99.90;;;;;;5053060;28;20259;-70
2020/12/19 00:35:50;;;;;;;0.30;0.30;;;4.80;99.90;;;;;;5033177;28;20182;-68
2020/12/19 00:38:16;;;;;;;0.30;0.30;;;4.80;99.90;;;;;;5033291;28;20260;-69
2020/12/19 00:40:42;;;;;;;0.30;0.30;;;4.80;99.90;;;;;;5032438;28;20491;-72
2020/12/19 00:43:07;;;;;;;0.30;0.30;;;4.80;99.90;;;;;;5031793;28;20195;-69
2020/12/19 00:45:33;;;;;;;2.10;1.80;;;4.80;99.90;;;;;;5040395;28;20420;-69
2020/12/19 00:47:59;;;;;;;0.40;0.40;;;4.80;99.90;;;;;;5053139;28;20165;-69
2020/12/19 00:50:24;;;;;;;0.30;0.30;;;4.80;99.90;;;;;;5038739;28;20522;-69
2020/12/19 00:52:50;;;;;;;0.30;0.30;;;4.80;99.90;;;;;;5038110;28;20212;-71
2020/12/19 00:55:15;;;;;;;0.67;0.67;;;4.80;99.90;;;;;;5040951;28;20178;-69
2020/12/19 00:57:41;;;;;;;0.30;0.30;;;4.90;99.90;;;;;;5031819;28;20182;-70
2020/12/19 01:00:09;;;;;;;0.93;0.93;;;5.00;99.90;;;;;;5030981;28;20285;-70
2020/12/19 01:02:38;;;;;;;0.30;0.30;;;5.10;99.90;;;;;;5035190;28;20518;-71
2020/12/19 01:05:08;;;;;;;2.40;1.48;;;5.20;99.90;;;;;;5036210;28;20201;-69
2020/12/19 01:07:38;;;;;;;0.70;0.70;;;5.20;99.90;;;;;;5036716;28;20514;-69
2020/12/19 01:10:09;;;;;;;0.30;0.30;;;5.30;99.90;;;;;;5035964;28;20660;-70
2020/12/19 01:12:35;;;;;;;0.30;0.30;;;5.30;99.90;;;;;;5036531;28;20225;-68
2020/12/19 01:15:01;;;;;;;0.30;0.30;;;5.30;99.90;;;;;;5036243;28;20528;-69
2020/12/19 01:17:27;;;;;;;0.67;0.67;;;5.30;99.90;;;;;;5036488;28;20256;-72
2020/12/19 01:19:53;;;;;;;0.35;0.35;;;5.30;99.90;;;;;;5035877;28;20209;-68
2020/12/19 01:22:21;;;;;;;0.43;0.43;;;5.20;99.90;;;;;;5053751;28;20197;-70
2020/12/19 01:24:47;;;;;;;0.40;0.40;;;5.20;99.90;;;;;;5043883;28;20182;-71
2020/12/19 01:27:13;;;;;;;0.30;0.30;;;5.20;99.90;;;;;;5036143;28;20180;-70
2020/12/19 01:29:38;;;;;;;0.40;0.40;;;5.10;99.90;;;;;;5036031;28;20205;-70
2020/12/19 01:32:04;;;;;;;0.30;0.30;;;5.10;99.90;;;;;;5039291;28;20246;-69
2020/12/19 01:34:29;;;;;;;0.30;0.30;;;5.10;99.90;;;;;;5034955;28;20695;-71
2020/12/19 01:36:55;;;;;;;0.40;0.40;;;5.10;99.90;;;;;;5036371;28;20182;-70
2020/12/19 01:39:22;;;;;;;0.30;0.30;;;5.20;99.90;;;;;;5035771;28;20206;-71
2020/12/19 01:41:48;;;;;;;0.40;0.40;;;5.20;99.90;;;;;;5035439;28;20661;-69
2020/12/19 01:44:13;;;;;;;0.30;0.30;;;5.20;99.90;;;;;;5034473;28;20232;-70
2020/12/19 01:46:58;;;;;;;0.57;0.57;;;5.30;99.90;;;;;;5036006;28;20174;-69
2020/12/19 01:49:34;;;;;;;2.45;2.35;;;5.30;99.90;;;;;;5035368;28;20193;-71
2020/12/19 01:52:05;;;;;;;0.30;0.30;;;5.30;99.90;;;;;;5015494;28;20205;-70
2020/12/19 01:54:32;;;;;;;0.30;0.30;;;5.30;99.90;;;;;;5026766;28;20205;-71
2020/12/19 01:56:59;;;;;;;0.30;0.30;;;5.30;99.90;;;;;;5035687;28;20185;-69
2020/12/19 01:59:26;;;;;;;0.30;0.30;;;5.20;99.90;;;;;;5035545;28;20208;-70
2020/12/19 02:02:02;;;;;;;0.30;0.30;;;5.10;99.90;;;;;;5035178;28;20204;-68
2020/12/19 02:04:28;;;;;;;0.30;0.30;;;5.20;99.90;;;;;;5035513;28;20174;-70
2020/12/19 02:06:55;;;;;;;0.70;0.70;;;5.10;99.90;;;;;;5036090;28;20170;-69
2020/12/19 02:09:42;;;;;;;0.30;0.30;;;5.10;99.90;;;;;;5035693;28;20174;-71
2020/12/19 02:12:11;;;;;;;1.20;1.20;;;5.10;99.90;;;;;;5035260;28;20210;-69
2020/12/19 02:14:38;;;;;;;0.50;0.50;;;5.00;99.90;;;;;;5034388;28;20205;-69
2020/12/19 02:17:05;;;;;;;0.40;0.40;;;5.00;99.90;;;;;;5035202;28;20178;-68
2020/12/19 02:19:31;;;;;;;0.30;0.30;;;5.00;99.90;;;;;;5035971;28;20194;-68
2020/12/19 02:21:58;;;;;;;0.93;0.93;;;5.10;99.90;;;;;;5034819;28;20688;-70
2020/12/19 02:24:24;;;;;;;0.93;0.93;;;5.20;99.90;;;;;;5034804;28;20173;-70
2020/12/19 02:26:55;;;;;;;0.40;0.40;;;5.20;99.90;;;;;;5035503;28;20173;-67
2020/12/19 02:29:22;;;;;;;0.30;0.30;;;5.20;99.90;;;;;;5034913;28;20439;-68
2020/12/19 02:31:48;;;;;;;0.57;0.57;;;5.20;99.90;;;;;;5034486;28;20683;-66
2020/12/19 02:34:14;;;;;;;0.30;0.30;;;5.30;99.90;;;;;;5034646;28;20587;-68
2020/12/19 02:36:41;;;;;;;0.40;0.40;;;5.30;99.90;;;;;;5033615;28;20293;-69
2020/12/19 02:39:08;;;;;;;0.30;0.30;;;5.30;99.90;;;;;;5034577;28;20435;-70
2020/12/19 02:41:35;;;;;;;1.70;1.60;;;5.20;99.90;;;;;;5034422;28;20190;-72
2020/12/19 02:44:00;;;;;;;0.40;0.40;;;5.20;99.90;;;;;;5034675;28;20170;-70
2020/12/19 02:46:26;;;;;;;0.40;0.40;;;5.30;99.90;;;;;;5034862;28;20189;-70
2020/12/19 02:48:52;;;;;;;0.30;0.30;;;5.20;99.90;;;;;;5037447;28;20165;-70
2020/12/19 02:51:17;;;;;;;0.40;0.40;;;5.20;99.90;;;;;;5054168;28;20243;-70
2020/12/19 02:53:43;;;;;;;0.57;0.57;;;5.20;99.90;;;;;;5050277;28;20211;-68
2020/12/19 02:56:09;;;;;;;3.57;3.37;;;5.20;99.90;;;;;;5034622;28;20228;-71
2020/12/19 02:58:34;;;;;;;0.30;0.30;;;5.10;99.90;;;;;;5043754;28;20252;-68
2020/12/19 03:01:00;;;;;;;0.30;0.30;;;5.10;99.90;;;;;;5033795;28;20677;-71
2020/12/19 03:03:26;;;;;;;0.30;0.30;;;5.10;99.90;;;;;;5033858;28;20413;-68
2020/12/19 03:05:52;;;;;;;0.40;0.40;;;5.10;99.90;;;;;;5033151;28;20412;-70
2020/12/19 03:08:17;;;;;;;0.30;0.30;;;5.00;99.90;;;;;;5034338;28;20648;-69
2020/12/19 03:10:43;;;;;;;0.40;0.40;;;5.00;99.90;;;;;;5033925;28;20182;-70
2020/12/19 03:13:09;;;;;;;0.30;0.30;;;4.80;99.90;;;;;;5044172;28;20194;-69
2020/12/19 03:15:35;;;;;;;0.40;0.40;;;4.70;99.90;;;;;;5054047;28;20766;-69
2020/12/19 03:18:00;;;;;;;0.40;0.40;;;4.50;99.90;;;;;;5039526;28;20412;-69
2020/12/19 03:20:26;;;;;;;0.77;0.77;;;4.40;99.90;;;;;;5035291;28;20699;-68
2020/12/19 03:22:55;;;;;;;0.50;0.50;;;4.30;99.90;;;;;;5041186;28;20198;-72
2020/12/19 03:25:20;;;;;;;0.30;0.30;;;4.10;99.90;;;;;;5032834;28;20695;-67
2020/12/19 03:27:46;;;;;;;0.30;0.30;;;4.10;99.90;;;;;;5033778;28;20182;-69
2020/12/19 03:30:11;;;;;;;0.40;0.40;;;4.00;99.90;;;;;;5033789;28;20213;-68
2020/12/19 03:32:37;;;;;;;0.60;0.60;;;4.00;99.90;;;;;;5033437;28;20205;-69
2020/12/19 03:35:03;;;;;;;0.40;0.40;;;4.00;99.90;;;;;;5034091;28;20170;-70
2020/12/19 03:37:29;;;;;;;0.30;0.30;;;4.00;99.90;;;;;;5043756;28;20239;-71
2020/12/19 03:39:54;;;;;;;0.30;0.30;;;4.00;99.90;;;;;;5033517;28;20307;-70
2020/12/19 03:42:20;;;;;;;1.60;1.50;;;3.90;99.90;;;;;;5033515;28;20252;-71
2020/12/19 03:44:45;;;;;;;0.30;0.30;;;3.90;99.90;;;;;;5033938;28;20645;-70
2020/12/19 03:47:11;;;;;;;1.17;1.13;;;3.90;99.90;;;;;;5033496;28;20256;-70
2020/12/19 03:49:37;;;;;;;0.40;0.40;;;3.90;99.90;;;;;;5033457;28;20257;-70
2020/12/19 03:52:02;;;;;;;0.30;0.30;;;3.90;99.90;;;;;;5033015;28;20220;-69
2020/12/19 03:54:28;;;;;;;0.40;0.40;;;3.90;99.90;;;;;;5033790;28;20174;-68
2020/12/19 03:56:53;;;;;;;0.30;0.30;;;3.90;99.90;;;;;;5033555;28;20178;-70
2020/12/19 03:59:20;;;;;;;0.53;0.53;;;3.90;99.90;;;;;;5033533;28;20209;-70
2020/12/19 04:01:46;;;;;;;0.85;0.68;;;4.00;99.90;;;;;;5032658;28;20221;-66
2020/12/19 04:04:12;;;;;;;0.30;0.30;;;4.00;99.90;;;;;;5033319;28;20249;-68
2020/12/19 04:06:38;;;;;;;0.30;0.30;;;3.90;99.90;;;;;;5033286;28;20257;-70
2020/12/19 04:09:03;;;;;;;0.60;0.60;;;4.00;99.90;;;;;;5033487;28;20493;-70
2020/12/19 04:11:29;;;;;;;0.30;0.30;;;3.80;99.90;;;;;;5033156;28;20615;-70
2020/12/19 04:13:55;;;;;;;0.30;0.30;;;3.80;99.90;;;;;;5032984;28;20178;-70
2020/12/19 04:16:20;;;;;;;0.47;0.47;;;3.80;99.90;;;;;;5033047;28;20178;-72
2020/12/19 04:18:46;;;;;;;1.07;1.07;;;3.70;99.90;;;;;;5033515;28;20625;-68
2020/12/19 04:21:12;;;;;;;0.40;0.40;;;3.70;99.90;;;;;;5035784;28;20229;-69
2020/12/19 04:23:37;;;;;;;2.50;2.40;;;3.70;99.90;;;;;;5033885;28;20256;-68
2020/12/19 04:26:03;;;;;;;0.60;0.60;;;3.60;99.90;;;;;;5033667;28;20208;-72
2020/12/19 04:28:29;;;;;;;1.67;1.03;;;3.60;99.90;;;;;;5052380;28;20181;-71
2020/12/19 04:30:55;;;;;;;0.50;0.50;;;3.50;99.90;;;;;;5042579;28;20320;-70
2020/12/19 04:33:21;;;;;;;0.50;0.50;;;3.40;99.90;;;;;;5032911;28;20272;-69
2020/12/19 04:35:47;;;;;;;0.45;0.45;;;3.40;99.90;;;;;;5031574;28;20444;-71
2020/12/19 04:38:13;;;;;;;0.40;0.40;;;3.40;99.90;;;;;;5036766;28;20237;-68
2020/12/19 04:40:39;;;;;;;0.45;0.45;;;3.40;99.90;;;;;;5035374;28;20289;-69
2020/12/19 04:43:19;;;;;;;0.30;0.30;;;3.30;99.90;;;;;;5056583;28;20284;-70
2020/12/19 04:45:46;;;;;;;0.30;0.30;;;3.20;99.90;;;;;;5047007;28;20428;-68
2020/12/19 04:48:17;;;;;;;0.32;0.32;;;3.30;99.90;;;;;;5035790;28;20177;-68
2020/12/19 04:50:45;;;;;;;0.40;0.40;;;3.30;99.90;;;;;;5036370;28;20232;-69
2020/12/19 04:53:23;;;;;;;0.30;0.30;;;3.30;99.90;;;;;;5037164;28;20335;-68
2020/12/19 04:55:49;;;;;;;0.40;0.40;;;3.30;99.90;;;;;;5039916;28;20170;-70
2020/12/19 04:58:19;;;;;;;0.30;0.30;;;3.30;99.90;;;;;;5055060;28;20204;-69
2020/12/19 05:00:46;;;;;;;0.40;0.40;;;3.30;99.90;;;;;;5048135;28;20460;-69
2020/12/19 05:03:11;;;;;;;0.52;0.52;;;3.20;99.90;;;;;;5035024;28;20194;-69
2020/12/19 05:05:41;;;;;;;0.73;0.73;;;3.20;99.90;;;;;;5036606;28;20170;-71
2020/12/19 05:08:07;;;;;;;0.70;0.70;;;3.20;99.90;;;;;;5037191;28;20253;-69
2020/12/19 05:10:33;;;;;;;0.47;0.47;;;3.10;99.90;;;;;;5035836;28;20261;-70
2020/12/19 05:12:58;;;;;;;0.30;0.30;;;3.10;99.90;;;;;;5036553;28;20194;-69
2020/12/19 05:15:24;;;;;;;0.30;0.30;;;3.10;99.90;;;;;;5036258;28;20171;-67
2020/12/19 05:17:54;;;;;;;0.40;0.40;;;3.00;99.90;;;;;;5036515;28;20181;-72
2020/12/19 05:20:21;;;;;;;0.30;0.30;;;2.90;99.90;;;;;;5035486;28;20296;-67
2020/12/19 05:22:49;;;;;;;0.30;0.30;;;2.90;99.90;;;;;;5036222;28;20229;-69
2020/12/19 05:25:20;;;;;;;0.30;0.30;;;3.00;99.90;;;;;;5038724;28;20174;-67
2020/12/19 05:27:47;;;;;;;0.30;0.30;;;2.90;99.90;;;;;;5056254;28;20280;-70
2020/12/19 05:30:14;;;;;;;0.30;0.30;;;2.90;99.90;;;;;;5051195;28;20200;-69
2020/12/19 05:32:49;;;;;;;0.30;0.30;;;2.90;99.90;;;;;;5035832;28;20529;-70
2020/12/19 05:35:16;;;;;;;0.30;0.30;;;3.00;99.90;;;;;;5035872;28;20253;-67
2020/12/19 05:37:42;;;;;;;0.38;0.38;;;3.00;99.90;;;;;;5036053;28;20249;-70
2020/12/19 05:40:13;;;;;;;0.55;0.55;;;3.00;99.90;;;;;;5035283;28;20202;-68
2020/12/19 05:42:41;;;;;;;0.60;0.60;;;3.00;99.90;;;;;;5034718;28;20223;-71
2020/12/19 05:45:22;;;;;;;0.30;0.30;;;3.00;99.90;;;;;;5034391;28;20224;-68
2020/12/19 05:47:48;;;;;;;1.02;1.00;;;2.90;99.90;;;;;;5035114;28;20178;-70
2020/12/19 05:50:15;;;;;;;0.60;0.60;;;2.80;99.90;;;;;;5034949;28;20257;-70
2020/12/19 05:52:41;;;;;;;0.30;0.30;;;2.80;99.90;;;;;;5035611;28;20213;-70
2020/12/19 05:55:09;;;;;;;0.30;0.30;;;2.90;99.90;;;;;;5035636;28;20181;-69
2020/12/19 05:57:36;;;;;;;0.40;0.40;;;2.80;99.90;;;;;;5034396;28;20174;-71
2020/12/19 06:00:18;;;;;;;0.30;0.30;;;2.80;99.90;;;;;;5034962;28;20197;-70
2020/12/19 06:02:45;;;;;;;0.47;0.47;;;2.70;99.90;;;;;;5015828;28;20269;-68
2020/12/19 06:05:15;;;;;;;0.50;0.50;;;2.70;99.90;;;;;;5016812;28;20529;-68
2020/12/19 06:07:45;;;;;;;1.30;1.20;;;2.60;99.90;;;;;;5035617;28;20263;-70
2020/12/19 06:10:13;;;;;;;0.40;0.40;;;2.60;99.90;;;;;;5034971;28;20599;-70
2020/12/19 06:12:51;;;;;;;0.40;0.40;;;2.50;99.90;;;;;;5035401;28;20213;-71
2020/12/19 06:15:23;;;;;;;0.50;0.50;;;2.60;99.90;;;;;;5049751;28;20223;-70
2020/12/19 06:17:52;;;;;;;0.40;0.40;;;2.50;99.90;;;;;;5035507;28;20166;-70
2020/12/19 06:20:19;;;;;;;0.30;0.30;;;2.60;99.90;;;;;;5034741;28;20194;-68
2020/12/19 06:22:45;;;;;;;1.52;1.10;;;2.60;99.90;;;;;;5034896;28;20594;-69
2020/12/19 06:25:11;;;;;;;0.40;0.40;;;2.60;99.90;;;;;;5033464;28;20530;-70
2020/12/19 06:27:38;;;;;;;0.30;0.30;;;2.60;99.90;;;;;;5035137;28;20166;-70
2020/12/19 06:30:04;;;;;;;0.40;0.40;;;2.60;99.90;;;;;;5034684;28;20209;-69
2020/12/19 06:32:31;;;;;;;0.40;0.40;;;2.60;99.90;;;;;;5034999;28;20221;-69
2020/12/19 06:35:11;;;;;;;0.30;0.30;;;2.50;99.90;;;;;;5035447;28;20198;-68
2020/12/19 06:37:40;;;;;;;0.40;0.40;;;2.60;99.90;;;;;;5036864;28;20209;-68
2020/12/19 06:40:14;;;;;;;0.60;0.50;;;2.50;99.90;;;;;;5034713;28;20209;-68
2020/12/19 06:42:42;;;;;;;0.30;0.30;;;2.50;99.90;;;;;;5034732;28;20223;-70
2020/12/19 06:45:25;;;;;;;0.30;0.30;;;2.50;99.90;;;;;;5035014;28;20576;-68
2020/12/19 06:47:52;;;;;;;0.30;0.30;;;2.40;99.90;;;;;;5029858;28;20584;-68
2020/12/19 06:50:19;;;;;;;0.30;0.30;;;2.50;99.90;;;;;;5034046;28;20184;-68
2020/12/19 06:52:56;;;;;;;2.95;1.00;;;2.50;99.90;;;;;;5034376;28;20214;-72
2020/12/19 06:55:24;;;;;;;0.40;0.40;;;2.50;99.90;;;;;;5034611;28;20169;-68
2020/12/19 06:57:54;;;;;;;2.17;1.50;;;2.50;99.90;;;;;;5035750;28;20181;-70
2020/12/19 07:00:30;;;;;;;0.40;0.40;;;2.50;99.90;;;;;;5033547;28;20201;-69
2020/12/19 07:02:57;;;;;;;0.40;0.40;;;2.50;99.90;;;;;;5034691;28;20193;-68
2020/12/19 07:05:27;;;;;;;0.30;0.30;;;2.40;99.90;;;;;;5034357;28;20172;-68
2020/12/19 07:08:14;;;;;;;0.60;0.60;;;2.40;99.90;;;;;;5034538;28;20185;-68
2020/12/19 07:10:39;;;;;;;0.30;0.30;;;2.30;99.90;;;;;;5033743;28;20201;-68
2020/12/19 07:13:05;;;;;;;0.30;0.30;;;2.40;99.90;;;;;;5033775;28;20734;-68
2020/12/19 07:15:51;;;;;;;1.90;1.33;;;2.40;99.90;;;;;;5034005;28;20779;-68
2020/12/19 07:18:34;;;;;;;0.35;0.35;;;2.40;99.90;;;;;;5033277;28;20744;-68
2020/12/19 07:21:02;;;;;;;0.30;0.30;;;2.40;99.90;;;;;;5035119;28;20225;-70
2020/12/19 07:23:28;;;;;;;0.30;0.30;;;2.40;99.90;;;;;;5034170;28;20194;-68
2020/12/19 07:25:54;;;;;;;0.45;0.45;;;2.40;99.90;;;;;;5033611;28;20181;-70
2020/12/19 07:28:21;;;;;;;0.70;0.70;;;2.50;99.90;;;;;;5039241;28;20177;-69
2020/12/19 07:30:48;;;;;;;0.38;0.38;;;2.40;99.90;;;;;;5031496;28;20424;-69
2020/12/19 07:33:14;;;;;;;0.60;0.60;;;2.40;99.90;;;;;;5037833;28;20201;-68
2020/12/19 07:35:39;;;;;;;0.40;0.40;;;2.40;99.90;;;;;;5039081;28;20244;-68
2020/12/19 07:38:06;;;;;;;0.30;0.30;;;2.60;99.90;;;;;;5033029;28;20174;-69
2020/12/19 07:40:32;;;;;;;0.35;0.35;;;2.70;99.90;;;;;;5032030;28;20206;-70
2020/12/19 07:43:05;;;;;;;0.70;0.70;;;2.90;99.90;;;;;;5032151;28;20278;-69
2020/12/19 07:45:31;;;;;;;0.30;0.30;;;3.10;99.90;;;;;;5032460;28;20184;-69
2020/12/19 07:47:57;;;;;;;0.30;0.30;;;3.20;99.90;;;;;;5033261;28;20162;-71
2020/12/19 07:50:27;;;;;;;0.30;0.30;;;3.20;99.90;;;;;;5032376;28;20522;-70
2020/12/19 07:53:11;;;;;;;0.30;0.30;;;3.20;99.90;;;;;;5032947;28;20446;-68
2020/12/19 07:55:36;;;;;;;0.40;0.40;;;3.30;99.90;;;;;;5032775;28;20211;-68
2020/12/19 07:58:03;;;;;;;0.30;0.30;;;3.30;99.90;;;;;;5033139;28;20196;-67
2020/12/19 08:00:31;;;;;;;0.30;0.30;;;3.40;99.90;;;;;;5032606;28;20194;-69
2020/12/19 08:02:57;;;;;;;0.30;0.30;;;3.50;99.90;;;;;;5033139;28;20193;-70
2020/12/19 08:05:23;;;;;;;0.50;0.50;;;3.50;99.90;;;;;;5033085;28;20166;-69
2020/12/19 08:07:54;;;;;;;0.30;0.30;;;3.60;99.90;;;;;;5033540;28;20189;-71
2020/12/19 08:10:21;;;;;;;0.30;0.30;;;3.60;99.90;;;;;;5032798;28;20181;-68
2020/12/19 08:12:47;;;;;;;0.30;0.30;;;3.60;99.90;;;;;;5032112;28;20239;-71
2020/12/19 08:15:20;;;;;;;2.55;1.58;;;3.80;99.90;;;;;;5031582;28;20264;-73
2020/12/19 08:18:02;;;;;;;0.30;0.30;;;4.10;99.90;;;;;;5033192;28;20193;-68
2020/12/19 08:20:30;;;;;;;0.85;0.85;;;4.40;99.90;;;;;;5032342;28;20198;-72
2020/12/19 08:22:59;;;;;;;0.68;0.68;;;4.70;99.90;;;;;;5032876;28;20192;-70
2020/12/19 08:25:25;;;;;;;0.30;0.30;;;5.00;99.90;;;;;;5032704;28;20166;-71
2020/12/19 08:27:51;;;;;;;0.30;0.30;;;5.20;99.90;;;;;;5032441;28;20516;-69
2020/12/19 08:30:24;;;;;;;0.60;0.60;;;5.70;99.90;;;;;;5032324;28;21014;-70
2020/12/19 08:32:58;;;;;;;0.40;0.40;;;6.40;99.90;;;;;;5032912;28;20520;-71
2020/12/19 08:35:46;;;;;;;0.95;0.95;;;7.30;99.90;;;;;;5031217;28;20576;-71
2020/12/19 08:38:16;;;;;;;0.30;0.30;;;8.30;99.90;;;;;;5028281;28;20171;-69
2020/12/19 08:40:44;;;;;;;0.50;0.50;;;9.20;99.90;;;;;;5031059;28;20381;-71
2020/12/19 08:43:12;;;;;;;0.30;0.20;;;10.10;99.90;;;;;;5025269;28;20198;-71
2020/12/19 08:45:44;;;;;;;0.50;0.50;;;10.70;99.90;;;;;;5031265;28;20429;-69
2020/12/19 08:48:21;;;;;;;0.33;0.33;;;11.40;99.90;;;;;;5029161;28;20413;-69
2020/12/19 08:50:49;;;;;;;0.80;0.80;;;11.90;99.90;;;;;;5025694;28;20408;-70
2020/12/19 08:53:21;;;;;;;0.30;0.30;;;12.40;99.90;;;;;;5031356;28;20448;-70
2020/12/19 08:55:47;;;;;;;0.40;0.40;;;12.80;99.40;;;;;;5031114;28;20460;-69
2020/12/19 08:58:33;;;;;;;1.17;0.60;;;13.10;97.10;;;;;;5031267;28;20418;-70
2020/12/19 09:01:10;;;;;;;0.30;0.30;;;13.30;98.10;;;;;;5030271;28;20468;-67
2020/12/19 09:03:36;;;;;;;0.30;0.30;;;13.70;97.00;;;;;;5038608;28;20418;-67
2020/12/19 09:06:07;;;;;;;0.40;0.40;;;14.10;96.00;;;;;;5032493;28;20840;-69
2020/12/19 09:08:34;;;;;;;0.50;0.50;;;14.50;94.70;;;;;;5032743;28;20502;-67
2020/12/19 09:11:00;;;;;;;0.40;0.40;;;14.70;94.00;;;;;;5031723;28;20423;-68
2020/12/19 09:13:26;;;;;;;0.90;0.67;;;14.80;93.90;;;;;;5032432;28;20433;-69
2020/12/19 09:15:57;;;;;;;0.63;0.63;;;14.80;92.90;;;;;;5032924;28;20174;-66
2020/12/19 09:18:25;;;;;;;1.13;1.13;;;14.90;93.00;;;;;;5030218;28;20178;-69
2020/12/19 09:20:53;;;;;;;0.90;0.87;;;15.00;92.90;;;;;;5030583;28;20457;-68
2020/12/19 09:23:20;;;;;;;0.40;0.40;;;15.30;92.50;;;;;;5030730;28;20803;-68
2020/12/19 09:25:46;;;;;;;0.30;0.30;;;15.60;90.90;;;;;;5035623;28;20466;-68
2020/12/19 09:28:12;;;;;;;2.10;1.90;;;15.60;90.80;;;;;;5034394;28;20499;-68
2020/12/19 09:30:38;;;;;;;0.30;0.20;;;15.60;91.70;;;;;;5034042;28;20776;-68
2020/12/19 09:33:04;;;;;;;0.83;0.43;;;15.80;90.70;;;;;;5034181;28;20450;-68
2020/12/19 09:35:31;;;;;;;1.60;1.33;;;16.10;90.10;;;;;;5033667;28;20412;-67
2020/12/19 09:37:57;;;;;;;0.60;0.60;;;16.20;89.60;;;;;;5035102;28;20942;-67
2020/12/19 09:40:23;;;;;;;0.83;0.83;;;16.40;88.70;;;;;;5034798;28;20570;-68
2020/12/19 09:42:50;;;;;;;0.30;0.30;;;16.40;88.00;;;;;;5034786;28;20880;-69
2020/12/19 09:45:15;;;;;;;1.73;1.33;;;16.40;87.90;;;;;;5035876;28;20735;-68
2020/12/19 09:47:41;;;;;;;0.37;0.37;;;16.50;87.70;;;;;;5035237;28;20421;-68
2020/12/19 09:50:13;;;;;;;0.40;0.40;;;16.50;85.50;;;;;;5035163;28;20420;-69
2020/12/19 09:52:39;;;;;;;0.90;0.90;;;16.40;86.40;;;;;;5035184;28;20547;-68
2020/12/19 09:55:08;;;;;;;0.70;0.53;;;16.40;86.90;;;;;;5035810;28;20397;-68
2020/12/19 09:57:34;;;;;;;1.30;1.20;;;16.40;86.50;;;;;;5035335;28;20392;-68
2020/12/19 10:00:00;;;;;;;3.03;0.93;;;16.50;86.00;;;;;;5035041;28;20464;-68
2020/12/19 10:02:26;;;;;;;1.07;0.77;;;16.60;86.00;;;;;;5034826;28;20947;-68
2020/12/19 10:04:52;;;;;;;0.30;0.20;;;16.60;85.10;;;;;;5035747;28;20393;-68
2020/12/19 10:07:18;;;;;;;0.30;0.30;;;16.50;85.50;;;;;;5035370;28;20661;-67
2020/12/19 10:09:44;;;;;;;1.13;1.13;;;16.40;85.40;;;;;;5035163;28;20182;-67
2020/12/19 10:12:09;;;;;;;0.30;0.30;;;16.40;85.00;;;;;;5034753;28;20248;-68
2020/12/19 10:14:35;;;;;;;0.30;0.20;;;16.40;84.30;;;;;;5035504;28;20240;-68
2020/12/19 10:17:01;;;;;;;0.30;0.20;;;16.30;85.50;;;;;;5035186;28;20619;-68
2020/12/19 10:19:26;;;;;;;0.30;0.30;;;16.40;84.90;;;;;;5035071;28;20544;-68
2020/12/19 10:21:52;;;;;;;0.70;0.70;;;16.50;84.90;;;;;;5033277;28;20190;-68
2020/12/19 10:24:18;;;;;;;1.03;0.40;;;16.50;84.70;;;;;;5035030;28;20572;-68
2020/12/19 10:26:47;;;;;;;0.57;0.57;;;16.50;84.40;;;;;;5035264;28;20174;-68
2020/12/19 10:29:14;;;;;;;0.30;0.20;;;16.50;85.30;;;;;;5034874;28;20174;-68
2020/12/19 10:31:39;;;;;;;0.73;0.60;;;16.30;85.80;;;;;;5034010;28;20437;-68
2020/12/19 10:34:05;;;;;;;0.87;0.50;;;16.40;86.00;;;;;;5033957;28;20912;-68
2020/12/19 10:36:31;;;;;;;0.63;0.63;;;16.40;85.80;;;;;;5035166;28;20213;-68
2020/12/19 10:38:58;;;;;;;0.43;0.43;;;16.40;85.70;;;;;;5034614;28;20178;-68
2020/12/19 10:41:24;;;;;;;0.30;0.20;;;16.30;86.20;;;;;;5033800;28;20209;-68
2020/12/19 10:43:49;;;;;;;0.30;0.20;;;16.40;85.70;;;;;;5034431;28;20388;-69
2020/12/19 10:46:23;;;;;;;0.30;0.20;;;16.40;84.80;;;;;;5035301;28;20787;-67
2020/12/19 10:48:49;;;;;;;2.10;2.00;;;16.10;85.30;;;;;;5034502;28;20171;-68
2020/12/19 10:51:15;;;;;;;0.53;0.53;;;16.00;86.40;;;;;;5033793;28;20479;-68
2020/12/19 10:53:44;;;;;;;0.30;0.20;;;15.80;86.40;;;;;;5034146;28;20197;-68
2020/12/19 10:56:20;;;;;;;0.50;0.50;;;15.70;86.40;;;;;;5034504;28;20174;-68
2020/12/19 10:58:45;;;;;;;0.30;0.30;;;15.50;86.60;;;;;;5034343;28;20413;-67
2020/12/19 11:01:11;;;;;;;0.50;0.50;;;15.40;87.00;;;;;;5034099;28;20479;-66
2020/12/19 11:03:37;;;;;;;0.30;0.30;;;15.40;87.10;;;;;;5034021;28;20206;-67
2020/12/19 11:06:03;;;;;;;0.30;0.30;;;15.30;87.80;;;;;;5033954;28;20443;-67
2020/12/19 11:08:29;;;;;;;0.30;0.20;;;15.30;88.30;;;;;;5033769;28;20229;-67
2020/12/19 11:10:54;;;;;;;0.70;0.67;;;15.10;88.40;;;;;;5033715;28;20178;-67
2020/12/19 11:13:20;;;;;;;0.40;0.40;;;14.80;88.50;;;;;;5033924;28;20453;-68
2020/12/19 11:15:45;;;;;;;0.30;0.30;;;14.30;89.60;;;;;;5034632;28;20195;-67
2020/12/19 11:18:11;;;;;;;0.53;0.53;;;13.70;90.60;;;;;;5033882;28;20173;-68
2020/12/19 11:20:37;;;;;;;0.40;0.40;;;13.30;91.70;;;;;;5032480;28;20232;-68
2020/12/19 11:23:03;;;;;;;0.50;0.50;;;12.80;91.90;;;;;;5033573;28;20620;-67
2020/12/19 11:25:29;;;;;;;0.30;0.20;;;12.30;92.80;;;;;;5034079;28;20415;-67
2020/12/19 11:27:55;;;;;;;0.60;0.60;;;12.00;93.10;;;;;;5032646;28;20776;-67
2020/12/19 11:30:21;;;;;;;4.73;1.80;;;11.90;93.70;;;;;;5033610;28;20453;-68
2020/12/19 11:32:46;;;;;;;2.70;1.53;;;11.70;94.10;;;;;;5033363;28;20230;-68
2020/12/19 11:35:12;;;;;;;1.37;1.27;;;11.60;94.40;;;;;;5033815;28;20185;-67
2020/12/19 11:37:37;;;;;;;0.50;0.50;;;11.40;94.70;;;;;;5033372;28;20222;-66
2020/12/19 11:40:05;;;;;;;0.50;0.50;;;11.40;95.00;;;;;;5033338;28;20190;-68
2020/12/19 11:42:30;;;;;;;0.30;0.20;;;11.40;94.90;;;;;;5033373;28;20285;-67
2020/12/19 11:44:56;;;;;;;0.40;0.40;;;11.40;95.20;;;;;;5033997;28;20210;-68
2020/12/19 11:47:22;;;;;;;0.33;0.30;;;11.30;95.30;;;;;;5033668;28;20175;-67
2020/12/19 11:49:47;;;;;;;0.30;0.30;;;11.20;95.70;;;;;;5033332;28;20173;-66
2020/12/19 11:52:13;;;;;;;0.30;0.20;;;11.20;95.80;;;;;;5032829;28;20444;-66
2020/12/19 11:54:39;;;;;;;0.30;0.30;;;11.10;96.10;;;;;;5033817;28;20702;-68
2020/12/19 11:57:06;;;;;;;0.88;0.88;;;11.00;96.30;;;;;;5033207;28;20169;-67
2020/12/19 11:59:32;;;;;;;2.60;0.82;;;10.90;96.60;;;;;;5033197;28;20194;-68
2020/12/19 12:02:01;;;;;;;0.30;0.30;;;11.00;96.80;;;;;;5032710;28;20190;-67
2020/12/19 12:04:27;;;;;;;0.30;0.30;;;11.00;97.00;;;;;;5033560;28;20397;-67
2020/12/19 12:06:52;;;;;;;0.90;0.73;;;11.00;97.40;;;;;;5031807;28;20174;-67
2020/12/19 12:09:18;;;;;;;0.30;0.20;;;11.00;97.10;;;;;;5033145;28;20312;-68
2020/12/19 12:11:44;;;;;;;0.60;0.60;;;11.00;97.00;;;;;;5032936;28;20196;-69
2020/12/19 12:14:10;;;;;;;0.50;0.50;;;11.00;97.10;;;;;;5033106;28;20806;-68
2020/12/19 12:16:35;;;;;;;0.30;0.20;;;11.10;96.90;;;;;;5033116;28;20201;-68
2020/12/19 12:19:01;;;;;;;1.17;1.17;;;11.10;97.20;;;;;;5033118;28;20174;-68
2020/12/19 12:21:37;;;;;;;0.30;0.30;;;11.20;96.90;;;;;;5032719;28;20771;-68
2020/12/19 12:24:04;;;;;;;0.50;0.50;;;11.30;96.80;;;;;;5032628;28;20173;-69
2020/12/19 12:26:30;;;;;;;0.80;0.63;;;11.30;96.60;;;;;;5033137;28;20174;-68
2020/12/19 12:28:56;;;;;;;0.30;0.30;;;11.40;96.60;;;;;;5033222;28;20239;-68
2020/12/19 12:31:32;;;;;;;0.30;0.30;;;11.50;96.50;;;;;;5032434;28;20190;-69
2020/12/19 12:33:59;;;;;;;0.30;0.30;;;11.70;96.30;;;;;;5033368;28;20181;-67
2020/12/19 12:36:27;;;;;;;0.50;0.50;;;11.80;96.40;;;;;;5032945;28;20197;-67
2020/12/19 12:38:53;;;;;;;0.30;0.30;;;11.90;96.30;;;;;;5032776;28;20174;-67
2020/12/19 12:41:19;;;;;;;0.30;0.20;;;12.00;95.90;;;;;;5032347;28;20210;-69
2020/12/19 12:43:45;;;;;;;1.07;1.00;;;12.10;95.90;;;;;;5033270;28;20175;-68
2020/12/19 12:46:15;;;;;;;0.30;0.30;;;12.20;95.90;;;;;;5032671;28;20911;-69
2020/12/19 12:48:41;;;;;;;0.30;0.30;;;12.30;95.80;;;;;;5032987;28;20397;-68
2020/12/19 12:51:08;;;;;;;0.30;0.20;;;12.40;95.10;;;;;;5032237;28;20659;-69
2020/12/19 12:53:36;;;;;;;0.40;0.40;;;12.40;95.50;;;;;;5032580;28;20433;-69
2020/12/19 12:56:04;;;;;;;0.30;0.30;;;12.50;95.50;;;;;;5031770;28;20214;-69